Time;durP1;ratioP1;P1;durP2;ratioP2;P2;SDS_P1;SDS_P2;PMS_P1;PMS_P2;Temp;Humidity;BMP_temperature;BMP_pressure;BME280_temperature;BME280_humidity;BME280_pressure;Samples;Min_cycle;Max_cycle;Signal;HPM_P1;HPM_P2
2022/04/23 00:00:30;;;;;;;;;7.75;5.75;;;;;14.09;62.33;100224.59;146613;618;46011;-79
2022/04/23 00:03:23;;;;;;;;;6.25;5.75;;;;;14.06;62.56;100229.72;146611;602;46016;-80
2022/04/23 00:06:15;;;;;;;;;19.00;18.25;;;;;14.08;62.32;100216.72;146607;647;46021;-77
2022/04/23 00:09:07;;;;;;;;;56.75;46.00;;;;;14.07;62.45;100214.94;146603;624;46016;-78
2022/04/23 00:11:59;;;;;;;;;14.00;11.50;;;;;14.10;62.59;100217.66;146608;600;46010;-78
2022/04/23 00:14:53;;;;;;;;;5.75;4.75;;;;;14.04;62.56;100207.91;146611;616;47013;-78
2022/04/23 00:17:47;;;;;;;;;14.50;14.50;;;;;14.01;62.96;100219.97;146612;569;46010;-83
2022/04/23 00:20:40;;;;;;;;;19.75;17.25;;;;;13.99;62.85;100216.47;146606;581;46015;-83
2022/04/23 00:23:33;;;;;;;;;22.50;21.25;;;;;13.97;62.80;100218.12;146608;605;46021;-79
2022/04/23 00:26:35;;;;;;;;;14.00;14.00;;;;;13.95;62.89;100227.63;146610;586;46016;-79
2022/04/23 00:29:39;;;;;;;;;18.50;16.50;;;;;13.89;62.59;100230.03;146607;641;46010;-77
2022/04/23 00:32:33;;;;;;;;;10.25;10.25;;;;;13.85;64.23;100237.78;146610;579;47012;-78
2022/04/23 00:39:29;;;;;;;;;57.75;45.25;;;;;13.67;63.74;100236.31;146602;615;46016;-78
2022/04/23 00:42:21;;;;;;;;;6.50;6.50;;;;;13.61;63.98;100248.34;146616;642;46010;-79
2022/04/23 00:45:13;;;;;;;;;19.75;18.00;;;;;13.55;64.16;100244.63;146607;573;46917;-80
2022/04/23 00:48:06;;;;;;;;;15.50;14.25;;;;;13.54;64.66;100245.50;146607;586;46026;-73
2022/04/23 00:51:01;;;;;;;;;10.25;9.50;;;;;13.53;64.51;100246.34;146607;604;46012;-74
2022/04/23 00:53:54;;;;;;;;;13.25;12.50;;;;;13.48;64.65;100238.34;146610;588;46020;-74
2022/04/23 00:56:46;;;;;;;;;8.50;6.75;;;;;13.37;64.42;100237.16;146609;596;46016;-77
2022/04/23 00:59:38;;;;;;;;;12.25;12.25;;;;;13.42;65.32;100247.69;146609;599;46021;-78
2022/04/23 01:02:30;;;;;;;;;6.50;6.50;;;;;13.39;65.26;100244.19;146613;599;46005;-84
2022/04/23 01:05:26;;;;;;;;;9.25;9.25;;;;;13.40;65.66;100247.66;146610;579;46013;-89
2022/04/23 01:08:19;;;;;;;;;8.50;6.25;;;;;13.40;65.81;100248.53;146616;657;45016;-86
2022/04/23 01:11:11;;;;;;;;;9.25;7.25;;;;;13.39;66.00;100246.78;146614;691;46020;-83
2022/04/23 01:14:03;;;;;;;;;13.50;9.00;;;;;13.46;65.72;100254.75;146605;622;46017;-84
2022/04/23 01:16:55;;;;;;;;;20.25;18.25;;;;;13.53;66.78;100256.75;146611;621;46010;-79
2022/04/23 01:19:47;;;;;;;;;54.50;42.75;;;;;13.54;65.58;100267.22;146605;673;47012;-81
2022/04/23 01:22:41;;;;;;;;;28.00;27.00;;;;;13.52;66.10;100263.69;146607;595;46010;-79
2022/04/23 01:25:33;;;;;;;;;13.00;11.00;;;;;13.37;66.95;100250.16;146607;624;46016;-85
2022/04/23 01:28:27;;;;;;;;;13.25;11.75;;;;;13.32;66.74;100252.59;146607;599;47010;-80
2022/04/23 01:31:20;;;;;;;;;48.75;38.00;;;;;13.27;66.78;100248.09;146607;606;46016;-81
2022/04/23 01:34:12;;;;;;;;;18.50;15.75;;;;;13.23;66.85;100259.19;146610;620;46010;-80
2022/04/23 01:37:04;;;;;;;;;9.25;9.00;;;;;13.21;66.90;100258.25;146612;621;46012;-80
2022/04/23 01:39:56;;;;;;;;;10.50;10.50;;;;;13.22;66.86;100249.63;146612;609;47010;-80
2022/04/23 01:42:48;;;;;;;;;8.25;7.50;;;;;13.23;66.99;100240.97;146611;581;46016;-81
2022/04/23 01:45:44;;;;;;;;;8.75;7.00;;;;;13.26;66.71;100248.94;146616;573;46021;-81
2022/04/23 01:48:36;;;;;;;;;10.25;9.25;;;;;13.29;66.88;100249.91;146607;610;46012;-79
2022/04/23 01:51:28;;;;;;;;;11.00;10.75;;;;;13.31;67.29;100253.44;146614;652;47010;-80
2022/04/23 01:54:20;;;;;;;;;15.00;11.75;;;;;13.31;67.46;100258.66;146608;602;46034;-81
2022/04/23 01:57:12;;;;;;;;;35.75;30.00;;;;;13.28;66.79;100250.75;146609;630;45020;-81
2022/04/23 02:00:04;;;;;;;;;11.25;10.25;;;;;13.21;68.20;100250.44;146611;564;46016;-81
2022/04/23 02:02:57;;;;;;;;;10.75;9.25;;;;;13.17;68.77;100259.88;146612;578;46010;-81
2022/04/23 02:05:49;;;;;;;;;13.50;12.50;;;;;13.15;67.91;100248.56;146611;610;46012;-81
2022/04/23 02:08:41;;;;;;;;;15.25;14.75;;;;;13.14;67.75;100252.84;146609;640;46020;-82
2022/04/23 02:11:33;;;;;;;;;18.50;17.75;;;;;13.16;67.57;100251.19;146607;589;46012;-77
2022/04/23 02:14:25;;;;;;;;;14.25;11.50;;;;;13.15;66.91;100259.84;146612;575;46021;-79
2022/04/23 02:17:18;;;;;;;;;28.00;25.25;;;;;13.18;66.94;100267.75;146606;586;46016;-80
2022/04/23 02:20:18;;;;;;;;;67.75;50.50;;;;;13.23;67.29;100267.00;146607;653;46011;-79
2022/04/23 02:23:11;;;;;;;;;49.25;39.50;;;;;13.26;67.47;100277.56;146607;570;46016;-81
2022/04/23 02:26:05;;;;;;;;;30.75;24.00;;;;;13.28;68.12;100279.41;146606;569;47010;-81
2022/04/23 02:28:57;;;;;;;;;24.50;23.00;;;;;13.26;68.50;100282.78;146605;611;46016;-80
2022/04/23 02:31:49;;;;;;;;;18.00;16.50;;;;;13.17;68.25;100284.19;146610;628;46010;-80
2022/04/23 02:34:40;;;;;;;;;14.50;12.75;;;;;13.11;70.44;100280.50;146605;569;46917;-79
2022/04/23 02:37:34;;;;;;;;;12.00;11.50;;;;;13.03;69.22;100285.47;146614;572;45917;-79
2022/04/23 02:40:27;;;;;;;;;15.75;13.25;;;;;12.97;70.24;100281.78;146608;597;46012;-78
2022/04/23 02:43:21;;;;;;;;;11.25;9.50;;;;;12.89;70.77;100284.97;146609;582;46021;-79
2022/04/23 02:46:14;;;;;;;;;13.00;12.00;;;;;12.84;69.12;100285.66;146606;589;46016;-81
2022/04/23 02:49:06;;;;;;;;;12.75;9.00;;;;;12.81;68.90;100283.84;146611;565;46010;-81
2022/04/23 02:51:58;;;;;;;;;10.75;9.75;;;;;12.81;68.97;100285.56;146605;619;46012;-78
2022/04/23 02:54:50;;;;;;;;;8.25;6.00;;;;;12.80;70.09;100278.56;146616;619;46010;-76
2022/04/23 02:57:44;;;;;;;;;11.75;10.00;;;;;12.78;68.96;100280.25;146607;599;46017;-77
2022/04/23 03:00:38;;;;;;;;;12.00;9.25;;;;;12.77;68.80;100289.75;146610;632;46020;-76
2022/04/23 03:03:30;;;;;;;;;9.50;8.75;;;;;12.80;68.56;100283.75;146610;619;46016;-76
2022/04/23 03:06:28;;;;;;;;;7.75;7.75;;;;;12.78;68.44;100286.31;146615;618;47010;-79
2022/04/23 03:09:20;;;;;;;;;14.00;12.00;;;;;12.74;69.11;100286.16;146604;579;46016;-79
2022/04/23 03:12:13;;;;;;;;;17.50;13.75;;;;;12.67;68.69;100279.84;146609;570;47010;-79
2022/04/23 03:15:04;;;;;;;;;14.25;13.25;;;;;12.63;68.54;100283.19;146607;608;46012;-89
2022/04/23 03:18:17;;;;;;;;;12.25;10.75;;;;;12.60;67.82;100290.88;146613;634;46020;-77
2022/04/23 03:21:10;;;;;;;;;9.50;8.50;;;;;12.54;69.30;100285.44;146606;595;46017;-77
2022/04/23 03:24:02;;;;;;;;;11.75;7.00;;;;;12.47;68.73;100297.34;146605;591;46020;-78
2022/04/23 03:26:54;;;;;;;;;10.50;8.75;;;;;12.43;68.86;100292.88;146629;647;46012;-78
2022/04/23 03:29:46;;;;;;;;;13.75;8.75;;;;;12.40;68.53;100290.16;146633;675;46010;-77
2022/04/23 03:32:38;;;;;;;;;11.75;10.00;;;;;12.39;68.71;100289.25;146629;569;45016;-78
2022/04/23 03:35:31;;;;;;;;;12.50;9.75;;;;;12.35;69.28;100294.28;146635;589;45021;-79
2022/04/23 03:38:23;;;;;;;;;11.00;8.00;;;;;12.27;70.07;100303.50;146632;606;45035;-80
2022/04/23 03:41:15;;;;;;;;;12.75;11.00;;;;;12.18;70.16;100311.84;146632;602;45020;-81
2022/04/23 03:44:07;;;;;;;;;12.00;10.50;;;;;12.10;70.15;100311.56;146625;587;45918;-80
2022/04/23 03:47:08;;;;;;;;;12.25;10.25;;;;;12.07;70.39;100308.84;146634;602;45010;-85
2022/04/23 03:50:01;;;;;;;;;8.75;7.75;;;;;12.07;70.35;100314.03;146635;628;45012;-81
2022/04/23 03:52:53;;;;;;;;;9.25;7.00;;;;;12.08;70.37;100315.78;146635;569;46010;-78
2022/04/23 03:55:46;;;;;;;;;10.50;7.50;;;;;12.11;71.28;100320.22;146630;607;46015;-77
2022/04/23 03:58:38;;;;;;;;;13.50;9.50;;;;;12.13;70.80;100318.59;146629;602;45020;-78
2022/04/23 04:01:30;;;;;;;;;16.00;11.75;;;;;12.17;70.20;100317.88;146631;643;45012;-77
2022/04/23 04:04:23;;;;;;;;;11.50;8.25;;;;;12.23;70.37;100328.50;146630;622;45917;-77
2022/04/23 04:07:23;;;;;;;;;13.75;10.50;;;;;12.28;71.44;100329.56;146629;594;46917;-76
2022/04/23 04:10:17;;;;;;;;;12.00;9.25;;;;;12.34;70.43;100329.81;146631;719;45010;-76
2022/04/23 04:13:10;;;;;;;;;12.50;9.50;;;;;12.41;70.15;100328.31;146630;563;45016;-78
2022/04/23 04:16:02;;;;;;;;;11.75;9.50;;;;;12.52;69.93;100339.09;146637;596;45010;-80
2022/04/23 04:18:53;;;;;;;;;8.50;7.75;;;;;12.61;69.88;100329.94;146634;572;45917;-79
2022/04/23 04:21:47;;;;;;;;;12.75;11.50;;;;;12.66;70.49;100331.00;146634;569;45010;-80
2022/04/23 04:24:39;;;;;;;;;9.00;8.50;;;;;12.71;69.74;100345.06;146631;655;45014;-79
2022/04/23 04:27:32;;;;;;;;;12.50;11.50;;;;;12.79;69.48;100344.44;146614;569;46010;-78
2022/04/23 04:30:24;;;;;;;;;13.75;12.50;;;;;12.88;70.35;100340.44;146611;602;47012;-76
2022/04/23 04:33:16;;;;;;;;;13.50;10.75;;;;;12.95;70.80;100338.94;146608;596;47010;-77
2022/04/23 04:36:08;;;;;;;;;14.00;11.75;;;;;13.02;71.04;100337.44;146607;745;47012;-70
2022/04/23 04:39:00;;;;;;;;;16.25;11.00;;;;;13.10;71.04;100326.47;146610;573;46020;-70
2022/04/23 04:41:53;;;;;;;;;11.50;10.50;;;;;13.23;70.03;100335.59;146605;570;46017;-71
2022/04/23 04:44:45;;;;;;;;;15.50;14.25;;;;;13.45;70.04;100331.13;146610;639;46028;-71
2022/04/23 04:47:37;;;;;;;;;18.00;14.75;;;;;13.63;69.57;100336.97;146607;564;46017;-71
2022/04/23 04:50:29;;;;;;;;;11.50;11.00;;;;;12.90;69.08;100179.19;146606;586;46010;-79
2022/04/23 04:53:21;;;;;;;;;13.75;13.25;;;;;14.08;69.05;100340.16;146608;582;46014;-86
2022/04/23 04:56:14;;;;;;;;;16.25;13.00;;;;;14.35;68.70;100343.53;146610;597;46021;-78
2022/04/23 04:59:06;;;;;;;;;14.25;11.25;;;;;14.59;68.26;100336.47;146609;644;46016;-88
2022/04/23 05:01:59;;;;;;;;;14.00;14.00;;;;;14.82;67.67;100351.88;146607;583;46020;-88
2022/04/23 05:04:51;;;;;;;;;17.50;15.00;;;;;14.96;67.32;100358.38;146605;574;46012;-81
2022/04/23 05:07:44;;;;;;;;;17.25;14.25;;;;;15.08;66.15;100363.94;146608;593;46010;-80
2022/04/23 05:10:36;;;;;;;;;13.75;13.25;;;;;15.23;65.78;100366.06;146606;626;46016;-79
2022/04/23 05:13:28;;;;;;;;;17.00;14.25;;;;;15.41;65.65;100350.88;146607;569;46020;-79
2022/04/23 05:16:21;;;;;;;;;14.25;14.25;;;;;15.63;65.25;100359.25;146606;566;46014;-79
2022/04/23 05:19:14;;;;;;;;;20.00;15.25;;;;;15.84;64.63;100370.28;146607;607;46020;-75
2022/04/23 05:22:06;;;;;;;;;20.25;16.75;;;;;16.03;64.69;100378.56;146605;578;46012;-85
2022/04/23 05:24:58;;;;;;;;;16.50;13.50;;;;;16.19;64.50;100378.06;146613;619;46011;-81
2022/04/23 05:27:50;;;;;;;;;17.00;15.00;;;;;16.28;64.14;100375.66;146606;597;46014;-80
2022/04/23 05:30:43;;;;;;;;;17.75;16.00;;;;;16.38;64.14;100379.34;146605;564;46020;-77
2022/04/23 05:33:35;;;;;;;;;20.25;16.25;;;;;16.46;64.15;100380.41;146605;594;46016;-78
2022/04/23 05:36:28;;;;;;;;;21.50;17.50;;;;;16.55;63.59;100375.38;146607;570;46020;-78
2022/04/23 05:39:20;;;;;;;;;18.75;15.50;;;;;16.66;63.37;100372.09;146605;678;46016;-78
2022/04/23 05:42:12;;;;;;;;;19.00;18.00;;;;;16.74;63.14;100376.66;146605;586;47010;-78
2022/04/23 05:45:04;;;;;;;;;15.75;14.00;;;;;16.88;63.20;100376.06;146606;637;46012;-77
2022/04/23 05:47:57;;;;;;;;;19.50;17.00;;;;;17.00;62.65;100374.56;146605;599;46021;-78
2022/04/23 05:50:49;;;;;;;;;19.00;17.25;;;;;17.17;63.24;100377.53;146602;616;46037;-77
2022/04/23 05:53:41;;;;;;;;;22.00;18.50;;;;;17.37;62.25;100377.03;146608;593;46020;-78
2022/04/23 05:56:33;;;;;;;;;20.25;18.25;;;;;17.57;62.34;100367.78;146607;588;46016;-78
2022/04/23 05:59:28;;;;;;;;;22.75;20.00;;;;;17.76;61.52;100364.59;146608;565;46020;-77
2022/04/23 06:02:20;;;;;;;;;21.00;17.50;;;;;17.97;61.41;100374.59;146607;578;46012;-78
2022/04/23 06:05:13;;;;;;;;;17.50;15.00;;;;;18.18;61.28;100375.75;146608;580;46032;-81
2022/04/23 06:08:06;;;;;;;;;17.50;17.00;;;;;18.39;60.40;100381.31;146607;611;46016;-72
2022/04/23 06:10:58;;;;;;;;;20.50;19.00;;;;;18.57;59.64;100375.44;146609;643;46010;-76
2022/04/23 06:13:50;;;;;;;;;23.25;21.50;;;;;18.67;59.39;100381.69;146602;617;46916;-79
2022/04/23 06:16:42;;;;;;;;;19.00;16.25;;;;;18.77;58.37;100388.84;146609;578;46011;-81
2022/04/23 06:19:37;;;;;;;;;21.50;18.25;;;;;18.86;58.82;100386.34;146604;595;46035;-81
2022/04/23 06:22:30;;;;;;;;;18.75;17.00;;;;;19.00;59.02;100393.50;146610;564;46010;-82
2022/04/23 06:25:22;;;;;;;;;23.75;23.50;;;;;19.21;58.57;100395.50;146607;603;46017;-82
2022/04/23 06:28:14;;;;;;;;;16.00;15.00;;;;;19.44;58.99;100393.09;146610;630;45020;-82
2022/04/23 06:31:06;;;;;;;;;22.00;18.00;;;;;19.65;58.46;100390.69;146606;592;46916;-84
2022/04/23 06:33:58;;;;;;;;;26.25;23.25;;;;;19.81;57.18;100391.69;146606;664;46021;-81
2022/04/23 06:36:50;;;;;;;;;28.00;23.00;;;;;19.91;57.59;100385.66;146603;593;46025;-83
2022/04/23 06:39:42;;;;;;;;;17.75;16.75;;;;;20.06;56.88;100387.50;146609;621;47010;-82
2022/04/23 06:42:34;;;;;;;;;27.50;23.25;;;;;20.22;56.59;100384.12;146607;676;46012;-81
2022/04/23 06:45:26;;;;;;;;;23.00;21.25;;;;;20.36;56.80;100385.97;146606;632;46010;-82
2022/04/23 06:48:18;;;;;;;;;29.50;19.50;;;;;20.49;55.64;100393.06;146606;619;46012;-82
2022/04/23 06:51:11;;;;;;;;;26.00;17.75;;;;;20.64;55.95;100393.19;146608;725;46020;-82
2022/04/23 06:54:03;;;;;;;;;20.50;17.25;;;;;20.80;55.14;100394.13;146607;613;45017;-83
2022/04/23 06:56:55;;;;;;;;;19.00;15.00;;;;;20.94;54.17;100384.53;146610;627;45020;-83
2022/04/23 06:59:47;;;;;;;;;20.00;19.75;;;;;21.06;53.61;100386.34;146607;573;45016;-82
2022/04/23 07:02:40;;;;;;;;;27.25;22.25;;;;;21.18;53.62;100386.37;146608;657;47010;-83
2022/04/23 07:05:32;;;;;;;;;22.50;19.25;;;;;21.35;53.31;100381.16;146607;646;45916;-83
2022/04/23 07:08:24;;;;;;;;;22.25;18.25;;;;;21.55;53.21;100380.28;146608;608;47010;-83
2022/04/23 07:11:17;;;;;;;;;23.50;21.00;;;;;21.70;53.32;100377.66;146607;651;46012;-82
2022/04/23 07:14:09;;;;;;;;;19.75;16.75;;;;;21.77;52.46;100373.25;146609;579;46010;-83
2022/04/23 07:17:02;;;;;;;;;22.50;19.50;;;;;21.86;52.69;100375.91;146606;583;46017;-82
2022/04/23 07:19:55;;;;;;;;;19.25;17.00;;;;;22.01;52.24;100385.56;146607;665;46012;-81
2022/04/23 07:26:01;;;;;;;;;20.25;15.75;;;;;22.25;50.51;100385.56;146606;603;46021;-81
2022/04/23 07:28:53;;;;;;;;;18.50;15.00;;;;;22.27;49.55;100377.62;146606;673;46016;-83
2022/04/23 07:31:45;;;;;;;;;17.50;10.50;;;;;22.26;49.87;100375.87;146610;654;46021;-83
2022/04/23 07:37:48;;;;;;;;;12.75;12.75;;;;;22.36;49.10;100382.91;146610;604;46020;-83
2022/04/23 07:40:40;;;;;;;;;15.00;13.50;;;;;22.37;49.62;100382.91;146607;708;46016;-83
2022/04/23 07:43:33;;;;;;;;;12.50;10.25;;;;;22.38;49.60;100378.50;146606;564;46020;-83
2022/04/23 07:46:25;;;;;;;;;11.75;10.75;;;;;22.47;49.57;100382.87;146607;633;46916;-83
2022/04/23 07:49:17;;;;;;;;;14.75;11.00;;;;;22.54;50.99;100379.34;146610;648;47010;-85
2022/04/23 07:52:10;;;;;;;;;11.50;9.50;;;;;22.60;47.86;100381.97;146605;572;47916;-83
2022/04/23 07:55:02;;;;;;;;;11.25;9.50;;;;;22.60;50.09;100385.47;146610;603;46020;-83
2022/04/23 07:57:54;;;;;;;;;11.25;10.25;;;;;22.63;50.54;100365.22;146605;665;46016;-85
2022/04/23 08:00:47;;;;;;;;;12.00;10.75;;;;;22.62;49.37;100363.44;146609;564;46011;-85
2022/04/23 08:03:39;;;;;;;;;11.33;10.33;;;;;22.61;50.62;100375.78;146605;623;47014;-84
2022/04/23 08:06:32;;;;;;;;;12.67;9.00;;;;;22.60;50.70;100376.69;146610;690;46010;-82
2022/04/23 08:09:24;;;;;;;;;10.50;8.75;;;;;22.65;51.87;100374.00;146606;688;46016;-83
2022/04/23 08:12:16;;;;;;;;;9.67;8.33;;;;;22.67;50.68;100375.75;146609;592;46020;-85
2022/04/23 08:15:09;;;;;;;;;6.67;5.33;;;;;22.72;49.84;100375.75;146614;644;47015;-84
2022/04/23 08:18:01;;;;;;;;;10.50;7.50;;;;;22.82;54.06;100380.09;146606;613;46021;-84
2022/04/23 08:21:35;;;;;;;;;7.33;7.33;;;;;22.97;53.31;100379.19;146613;659;47014;-84
2022/04/23 08:24:33;;;;;;;;;9.00;8.00;;;;;23.06;50.68;100379.16;146614;585;47012;-83
2022/04/23 08:27:25;;;;;;;;;12.00;8.00;;;;;23.19;48.71;100378.19;146605;563;46014;-84
2022/04/23 08:30:35;;;;;;;;;9.33;7.00;;;;;23.29;50.49;100376.37;146611;580;47010;-84
2022/04/23 08:33:57;;;;;;;;;12.00;9.25;;;;;23.39;49.59;100379.81;146613;652;46012;-85
2022/04/23 08:36:39;;;;;;;;;6.00;4.33;;;;;23.49;48.46;100371.81;146615;569;47010;-85
2022/04/23 08:39:31;;;;;;;;;8.67;5.67;;;;;23.67;47.71;100375.19;146614;611;46012;-84
2022/04/23 08:42:23;;;;;;;;;8.75;6.25;;;;;23.84;47.78;100368.03;146611;641;46020;-83
2022/04/23 08:45:15;;;;;;;;;7.33;7.33;;;;;23.95;48.44;100368.81;146613;642;47012;-84
2022/04/23 08:48:17;;;;;;;;;9.00;6.67;;;;;24.00;48.60;100373.22;146612;563;46010;-83
2022/04/23 08:51:20;;;;;;;;;10.00;6.00;;;;;24.03;46.93;100363.47;146608;626;46016;-86
2022/04/23 08:54:18;;;;;;;;;10.67;7.67;;;;;24.07;47.29;100367.81;146616;602;47010;-84
2022/04/23 08:57:10;;;;;;;;;10.33;7.00;;;;;24.03;46.94;100362.59;146604;575;47016;-83
2022/04/23 09:00:08;;;;;;;;;6.67;5.00;;;;;24.00;46.36;100367.91;146618;584;46012;-84
2022/04/23 09:03:21;;;;;;;;;11.00;8.33;;;;;24.00;48.36;100358.19;146612;597;46012;-85
2022/04/23 09:06:13;;;;;;;;;6.67;5.67;;;;;24.03;45.51;100363.47;146615;596;46020;-82
2022/04/23 09:09:17;;;;;;;;;9.33;7.33;;;;;24.14;46.28;100366.00;146612;574;46017;-83
2022/04/23 09:12:12;;;;;;;;;0.33;0.00;;;;;24.29;46.51;100365.84;146617;569;46010;-84
2022/04/23 09:24:54;;;;;;;;;5.67;4.33;;;;;24.66;45.21;100368.97;146616;586;46010;-80
2022/04/23 09:27:47;;;;;;;;;8.67;5.33;;;;;24.68;43.17;100362.78;146610;675;47012;-81
2022/04/23 09:30:43;;;;;;;;;4.33;4.33;;;;;24.74;44.70;100358.28;146615;566;47010;-81
2022/04/23 09:33:54;;;;;;;;;10.00;7.67;;;;;24.72;46.28;100354.75;146614;600;46016;-80
2022/04/23 09:37:00;;;;;;;;;5.67;5.67;;;;;24.75;45.88;100360.03;146619;579;46011;-82
2022/04/23 09:39:52;;;;;;;;;11.33;5.67;;;;;24.76;44.23;100351.16;146611;611;46016;-80
2022/04/23 09:42:45;;;;;;;;;8.33;8.00;;;;;24.82;42.43;100356.38;146616;626;45028;-81
2022/04/23 09:45:42;;;;;;;;;7.00;6.00;;;;;24.83;42.99;100349.34;146614;586;46012;-81
2022/04/23 09:48:34;;;;;;;;;8.67;5.67;;;;;24.92;42.58;100349.19;146613;635;47012;-79
2022/04/23 09:51:28;;;;;;;;;8.00;7.67;;;;;25.09;43.86;100346.31;146612;577;46013;-81
2022/04/23 09:54:21;;;;;;;;;10.67;6.33;;;;;25.21;43.69;100332.91;146609;609;46020;-81
2022/04/23 09:57:12;;;;;;;;;9.00;6.00;;;;;25.35;41.81;100338.00;146613;657;46016;-81
2022/04/23 10:00:05;;;;;;;;;6.00;4.33;;;;;25.47;42.97;100332.50;146616;577;46020;-81
2022/04/23 10:03:02;;;;;;;;;8.67;7.67;;;;;25.57;43.85;100335.87;146606;608;46016;-80
2022/04/23 10:05:55;;;;;;;;;8.67;8.67;;;;;25.69;43.97;100332.13;146616;584;46010;-81
2022/04/23 10:08:51;;;;;;;;;9.00;4.33;;;;;25.86;42.16;100327.44;146614;591;46016;-81
2022/04/23 10:11:46;;;;;;;;;8.33;5.67;;;;;25.95;45.11;100329.03;146614;673;46010;-81
2022/04/23 10:14:46;;;;;;;;;7.00;5.67;;;;;26.19;43.80;100325.94;146610;665;46014;-82
2022/04/23 10:17:40;;;;;;;;;9.00;6.33;;;;;26.35;40.99;100333.59;146611;566;47010;-81
2022/04/23 10:20:32;;;;;;;;;8.33;7.00;;;;;26.41;42.79;100326.38;146610;592;47013;-80
2022/04/23 10:24:21;;;;;;;;;8.00;5.00;;;;;25.77;43.91;100174.44;146617;653;46020;-79
2022/04/23 10:27:18;;;;;;;;;8.00;4.67;;;;;26.81;40.61;100308.75;146612;611;46016;-80
2022/04/23 10:30:12;;;;;;;;;4.67;4.67;;;;;26.93;41.94;100311.13;146616;576;46021;-80
2022/04/23 10:33:28;;;;;;;;;10.33;9.33;;;;;25.56;44.43;100082.78;146610;571;46012;-82
2022/04/23 10:36:20;;;;;;;;;6.00;5.00;;;;;26.63;43.63;100315.34;146613;614;46022;-80
2022/04/23 10:39:25;;;;;;;;;8.67;6.67;;;;;26.23;44.39;100317.00;146606;569;46918;-79
2022/04/23 10:42:19;;;;;;;;;7.33;3.33;;;;;25.96;42.12;100323.72;146618;601;46012;-77
2022/04/23 10:45:15;;;;;;;;;7.33;6.00;;;;;25.71;43.61;100317.94;146614;619;46016;-80
2022/04/23 10:48:30;;;;;;;;;12.00;7.00;;;;;25.50;46.82;100323.59;146615;585;46010;-80
2022/04/23 10:51:22;;;;;;;;;7.33;7.00;;;;;25.43;45.18;100319.31;146614;584;46014;-80
2022/04/23 10:54:19;;;;;;;;;5.00;4.67;;;;;25.42;45.09;100314.87;146612;671;46010;-80
2022/04/23 10:57:13;;;;;;;;;9.00;6.67;;;;;25.49;43.64;100317.44;146610;679;46017;-81
2022/04/23 11:00:20;;;;;;;;;7.67;5.33;;;;;25.65;44.90;100317.16;146614;657;46020;-80
2022/04/23 11:03:14;;;;;;;;;9.00;7.33;;;;;25.79;43.59;100320.44;146608;599;46016;-80
2022/04/23 11:13:34;;;;;;;;;7.33;4.67;;;;;26.14;42.10;100311.87;146614;575;46021;-80
2022/04/23 11:16:30;;;;;;;;;12.00;6.67;;;;;26.26;39.25;100318.72;146611;613;46012;-81
2022/04/23 11:19:25;;;;;;;;;14.00;7.00;;;;;26.20;39.19;100313.50;146616;598;46010;-81
2022/04/23 11:22:17;;;;;;;;;7.67;4.00;;;;;26.05;42.64;100316.50;146613;644;47012;-80
2022/04/23 11:25:10;;;;;;;;;7.67;5.00;;;;;26.01;42.61;100308.59;146617;572;46020;-80
2022/04/23 11:28:17;;;;;;;;;6.00;4.67;;;;;26.18;43.29;100305.59;146612;625;47012;-80
2022/04/23 11:31:16;;;;;;;;;6.33;4.00;;;;;26.34;39.65;100297.31;146618;647;46010;-80
2022/04/23 11:34:09;;;;;;;;;8.00;5.67;;;;;26.45;39.05;100303.28;146608;591;46016;-79
2022/04/23 11:37:01;;;;;;;;;5.67;5.00;;;;;26.41;41.86;100299.78;146618;567;46010;-80
2022/04/23 11:39:53;;;;;;;;;7.00;5.00;;;;;26.43;40.60;100299.78;146609;566;46016;-79
2022/04/23 11:42:50;;;;;;;;;8.33;6.00;;;;;26.39;36.58;100293.66;146611;674;46012;-80
2022/04/23 11:45:53;;;;;;;;;7.33;4.00;;;;;26.33;41.78;100292.91;146613;671;46012;-80
2022/04/23 11:48:53;;;;;;;;;5.00;4.33;;;;;26.31;41.74;100290.28;146614;582;47013;-80
2022/04/23 11:51:45;;;;;;;;;4.67;4.00;;;;;26.24;39.00;100292.19;146614;584;46016;-80
2022/04/23 11:54:55;;;;;;;;;7.00;3.00;;;;;26.20;43.62;100282.53;146615;587;47010;-80
2022/04/23 11:57:47;;;;;;;;;12.33;4.67;;;;;26.30;40.94;100282.34;146611;569;46017;-81
2022/04/23 12:00:39;;;;;;;;;12.00;5.33;;;;;26.47;40.86;100275.75;146610;585;46020;-81
2022/04/23 12:03:32;;;;;;;;;7.67;6.67;;;;;26.54;39.60;100273.84;146613;643;46016;-79
2022/04/23 12:06:26;;;;;;;;;6.00;4.67;;;;;26.57;39.95;100265.81;146615;630;46010;-78
2022/04/23 12:09:17;;;;;;;;;4.33;4.00;;;;;26.63;39.83;100264.81;146615;564;46012;-79
2022/04/23 12:12:10;;;;;;;;;6.33;5.33;;;;;26.61;39.84;100253.34;146617;620;46021;-79
2022/04/23 12:15:06;;;;;;;;;6.33;5.00;;;;;26.69;40.02;100257.56;146612;619;46038;-81
2022/04/23 12:17:59;;;;;;;;;6.00;3.00;;;;;25.85;38.87;100117.66;146612;570;47013;-80
2022/04/23 12:20:51;;;;;;;;;4.67;4.33;;;;;26.58;39.11;100250.75;146612;569;47014;-81
2022/04/23 12:23:45;;;;;;;;;9.00;4.67;;;;;26.53;39.83;100250.84;146617;570;46010;-80
2022/04/23 12:26:39;;;;;;;;;6.33;3.00;;;;;26.47;38.51;100256.25;146609;588;46017;-77
2022/04/23 12:42:32;;;;;;;;;8.00;4.67;;;;;25.76;40.20;100247.03;146612;551;46023;-79
2022/04/23 12:45:25;;;;;;;;;8.67;6.67;;;;;25.64;40.35;100236.66;146609;596;46016;-80
2022/04/23 12:48:17;;;;;;;;;7.00;4.00;;;;;25.55;41.50;100242.12;146611;629;46021;-78
2022/04/23 12:51:10;;;;;;;;;7.00;4.33;;;;;25.45;40.23;100243.16;146613;595;46012;-79
2022/04/23 12:54:02;;;;;;;;;7.00;5.00;;;;;25.37;40.67;100237.13;146614;563;46020;-81
2022/04/23 12:56:54;;;;;;;;;5.00;3.00;;;;;25.41;38.78;100233.50;146613;644;46013;-79
2022/04/23 12:59:46;;;;;;;;;7.00;5.00;;;;;25.50;40.05;100228.03;146615;666;46010;-79
2022/04/23 13:02:39;;;;;;;;;7.00;4.00;;;;;25.58;39.83;100224.34;146608;598;46012;-78
2022/04/23 13:05:32;;;;;;;;;6.33;4.00;;;;;25.65;36.78;100206.53;146618;570;46010;-78
2022/04/23 13:11:34;;;;;;;;;8.33;5.00;;;;;25.72;40.43;100213.47;146615;621;46013;-80
2022/04/23 13:14:26;;;;;;;;;7.67;5.00;;;;;25.85;40.30;100213.25;146613;602;46012;-78
2022/04/23 13:17:19;;;;;;;;;3.67;3.33;;;;;25.87;40.00;100209.66;146612;583;46010;-79
2022/04/23 13:20:13;;;;;;;;;8.67;4.67;;;;;24.95;40.63;100073.31;146609;571;46012;-80
2022/04/23 13:23:05;;;;;;;;;9.33;4.00;;;;;25.65;39.77;100208.31;146611;599;46020;-80
2022/04/23 13:25:58;;;;;;;;;5.33;5.33;;;;;25.62;39.96;100205.72;146609;574;46016;-79
2022/04/23 13:28:50;;;;;;;;;8.33;4.00;;;;;25.59;40.42;100206.63;146613;595;46020;-78
2022/04/23 13:31:42;;;;;;;;;6.00;4.00;;;;;25.56;40.44;100209.34;146611;570;46012;-79
2022/04/23 13:34:34;;;;;;;;;8.67;5.00;;;;;25.55;40.68;100207.59;146617;580;46011;-79
2022/04/23 13:37:26;;;;;;;;;5.00;4.00;;;;;25.49;37.78;100199.75;146612;588;46012;-78
2022/04/23 13:40:18;;;;;;;;;4.67;3.00;;;;;25.35;36.75;100205.28;146614;564;46011;-79
2022/04/23 13:43:11;;;;;;;;;9.00;4.00;;;;;25.25;38.57;100201.94;146611;564;46016;-79
2022/04/23 13:46:03;;;;;;;;;5.33;3.00;;;;;25.22;40.10;100199.34;146615;600;46020;-79
2022/04/23 13:48:56;;;;;;;;;7.33;5.67;;;;;25.07;37.39;100194.25;146616;616;46014;-79
2022/04/23 13:51:48;;;;;;;;;7.00;4.00;;;;;24.96;38.55;100198.88;146615;595;46010;-79
2022/04/23 13:54:40;;;;;;;;;10.67;7.00;;;;;24.87;39.75;100198.09;146611;572;46016;-79
2022/04/23 13:57:33;;;;;;;;;9.00;5.33;;;;;24.77;39.85;100198.28;146615;625;46021;-79
2022/04/23 14:00:25;;;;;;;;;6.67;3.67;;;;;24.68;37.81;100194.00;146615;604;46012;-78
2022/04/23 14:10:04;;;;;;;;;6.00;4.00;;;;;24.54;40.70;100195.97;146610;620;46016;-79